sensor_id;sensor_type;location;lat;lon;timestamp;pressure;altitude;pressure_sealevel;temperature;humidity
63903;BME280;50072;50.678;13.938;2022-08-19T00:01:37;98663.06;;;23.35;62.25
63903;BME280;50072;50.678;13.938;2022-08-19T00:04:11;98667.09;;;23.31;62.33
63903;BME280;50072;50.678;13.938;2022-08-19T00:06:38;98668.38;;;23.26;62.59
63903;BME280;50072;50.678;13.938;2022-08-19T00:09:07;98660.47;;;23.23;63.32
63903;BME280;50072;50.678;13.938;2022-08-19T00:11:35;98662.31;;;23.23;62.83
63903;BME280;50072;50.678;13.938;2022-08-19T00:14:04;98653.44;;;23.21;62.37
63903;BME280;50072;50.678;13.938;2022-08-19T00:16:32;98664.78;;;23.16;63.70
63903;BME280;50072;50.678;13.938;2022-08-19T00:18:58;98682.47;;;23.12;63.75
63903;BME280;50072;50.678;13.938;2022-08-19T00:21:25;98681.97;;;23.07;63.69
63903;BME280;50072;50.678;13.938;2022-08-19T00:23:54;98679.41;;;23.05;64.49
63903;BME280;50072;50.678;13.938;2022-08-19T00:26:20;98681.97;;;22.97;64.31
63903;BME280;50072;50.678;13.938;2022-08-19T00:28:46;98671.47;;;22.92;63.62
63903;BME280;50072;50.678;13.938;2022-08-19T00:31:12;98675.22;;;22.91;63.80
63903;BME280;50072;50.678;13.938;2022-08-19T00:33:38;98662.44;;;22.82;65.24
63903;BME280;50072;50.678;13.938;2022-08-19T00:36:06;98680.53;;;22.83;64.70
63903;BME280;50072;50.678;13.938;2022-08-19T00:38:34;98680.78;;;22.80;64.47
63903;BME280;50072;50.678;13.938;2022-08-19T00:41:00;98685.81;;;22.75;64.71
63903;BME280;50072;50.678;13.938;2022-08-19T00:43:27;98683.25;;;22.73;64.63
63903;BME280;50072;50.678;13.938;2022-08-19T00:45:54;98682.34;;;22.63;64.60
63903;BME280;50072;50.678;13.938;2022-08-19T00:48:21;98686.22;;;22.61;65.10
63903;BME280;50072;50.678;13.938;2022-08-19T00:50:49;98682.19;;;22.55;66.08
63903;BME280;50072;50.678;13.938;2022-08-19T00:53:19;98679.00;;;22.50;65.33
63903;BME280;50072;50.678;13.938;2022-08-19T00:55:48;98671.53;;;22.42;66.62
63903;BME280;50072;50.678;13.938;2022-08-19T00:58:17;98681.69;;;22.40;66.71
63903;BME280;50072;50.678;13.938;2022-08-19T01:00:44;98689.88;;;22.40;65.74
63903;BME280;50072;50.678;13.938;2022-08-19T01:03:15;98693.63;;;22.39;67.43
63903;BME280;50072;50.678;13.938;2022-08-19T01:05:43;98693.63;;;22.39;66.37
63903;BME280;50072;50.678;13.938;2022-08-19T01:08:10;98699.06;;;22.39;65.82
63903;BME280;50072;50.678;13.938;2022-08-19T01:10:48;98710.56;;;22.43;66.52
63903;BME280;50072;50.678;13.938;2022-08-19T01:13:17;98702.22;;;22.44;67.22
63903;BME280;50072;50.678;13.938;2022-08-19T01:16:08;98692.31;;;22.43;67.53
63903;BME280;50072;50.678;13.938;2022-08-19T01:18:40;98699.50;;;22.44;67.48
63903;BME280;50072;50.678;13.938;2022-08-19T01:21:20;98705.94;;;22.43;68.66
63903;BME280;50072;50.678;13.938;2022-08-19T01:23:47;98709.97;;;22.39;67.78
63903;BME280;50072;50.678;13.938;2022-08-19T01:26:17;98704.53;;;22.39;67.98
63903;BME280;50072;50.678;13.938;2022-08-19T01:28:46;98687.28;;;22.38;68.61
63903;BME280;50072;50.678;13.938;2022-08-19T01:31:15;98672.59;;;22.30;69.45
63903;BME280;50072;50.678;13.938;2022-08-19T01:33:41;98648.06;;;22.30;69.05
63903;BME280;50072;50.678;13.938;2022-08-19T01:36:31;98651.78;;;22.29;69.14
63903;BME280;50072;50.678;13.938;2022-08-19T01:38:56;98655.66;;;22.26;68.94
63903;BME280;50072;50.678;13.938;2022-08-19T01:41:24;98664.84;;;22.25;69.35
63903;BME280;50072;50.678;13.938;2022-08-19T01:43:51;98680.59;;;22.21;69.36
63903;BME280;50072;50.678;13.938;2022-08-19T01:46:18;98687.16;;;22.19;70.56
63903;BME280;50072;50.678;13.938;2022-08-19T01:48:45;98694.63;;;22.17;69.92
63903;BME280;50072;50.678;13.938;2022-08-19T01:51:12;98711.84;;;22.17;69.59
63903;BME280;50072;50.678;13.938;2022-08-19T01:53:39;98715.59;;;22.16;70.57
63903;BME280;50072;50.678;13.938;2022-08-19T01:56:08;98711.25;;;22.14;70.90
63903;BME280;50072;50.678;13.938;2022-08-19T01:58:43;98719.44;;;22.14;71.22
63903;BME280;50072;50.678;13.938;2022-08-19T02:01:12;98721.56;;;22.10;70.02
63903;BME280;50072;50.678;13.938;2022-08-19T02:03:39;98717.25;;;22.08;71.31
63903;BME280;50072;50.678;13.938;2022-08-19T02:06:05;98720.38;;;22.03;71.99
63903;BME280;50072;50.678;13.938;2022-08-19T02:08:34;98726.09;;;22.00;71.83
63903;BME280;50072;50.678;13.938;2022-08-19T02:11:01;98731.81;;;21.97;72.51
63903;BME280;50072;50.678;13.938;2022-08-19T02:13:27;98745.72;;;21.94;73.18
63903;BME280;50072;50.678;13.938;2022-08-19T02:15:53;98742.25;;;21.92;72.07
63903;BME280;50072;50.678;13.938;2022-08-19T02:18:19;98757.00;;;21.89;72.66
63903;BME280;50072;50.678;13.938;2022-08-19T02:20:46;98754.94;;;21.81;72.80
63903;BME280;50072;50.678;13.938;2022-08-19T02:23:14;98756.69;;;21.82;72.87
63903;BME280;50072;50.678;13.938;2022-08-19T02:25:41;98754.94;;;21.81;72.58
63903;BME280;50072;50.678;13.938;2022-08-19T02:28:07;98750.09;;;21.85;71.96
63903;BME280;50072;50.678;13.938;2022-08-19T02:30:34;98756.41;;;21.85;73.36
63903;BME280;50072;50.678;13.938;2022-08-19T02:32:59;98737.88;;;21.79;73.54
63903;BME280;50072;50.678;13.938;2022-08-19T02:35:25;98756.94;;;21.79;72.57
63903;BME280;50072;50.678;13.938;2022-08-19T02:37:51;98752.47;;;21.78;73.18
63903;BME280;50072;50.678;13.938;2022-08-19T02:40:36;98756.94;;;21.79;72.97
63903;BME280;50072;50.678;13.938;2022-08-19T02:43:06;98752.88;;;21.74;73.29
63903;BME280;50072;50.678;13.938;2022-08-19T02:45:35;98766.03;;;21.68;75.35
63903;BME280;50072;50.678;13.938;2022-08-19T02:48:02;98752.69;;;21.65;73.94
63903;BME280;50072;50.678;13.938;2022-08-19T02:50:28;98749.94;;;21.65;73.67
63903;BME280;50072;50.678;13.938;2022-08-19T02:52:54;98758.25;;;21.64;74.46
63903;BME280;50072;50.678;13.938;2022-08-19T02:55:20;98761.69;;;21.66;73.96
63903;BME280;50072;50.678;13.938;2022-08-19T02:57:46;98760.97;;;21.64;74.62
63903;BME280;50072;50.678;13.938;2022-08-19T03:00:14;98766.28;;;21.65;74.56
63903;BME280;50072;50.678;13.938;2022-08-19T03:02:40;98782.09;;;21.71;74.12
63903;BME280;50072;50.678;13.938;2022-08-19T03:05:08;98777.53;;;21.72;74.10
63903;BME280;50072;50.678;13.938;2022-08-19T03:07:35;98784.94;;;21.70;74.16
63903;BME280;50072;50.678;13.938;2022-08-19T03:10:01;98788.44;;;21.72;74.08
63903;BME280;50072;50.678;13.938;2022-08-19T03:12:27;98794.09;;;21.69;74.60
63903;BME280;50072;50.678;13.938;2022-08-19T03:14:53;98803.78;;;21.62;75.85
63903;BME280;50072;50.678;13.938;2022-08-19T03:17:19;98801.22;;;21.60;75.59
63903;BME280;50072;50.678;13.938;2022-08-19T03:19:45;98805.19;;;21.56;75.52
63903;BME280;50072;50.678;13.938;2022-08-19T03:22:11;98804.94;;;21.59;75.69
63903;BME280;50072;50.678;13.938;2022-08-19T03:24:38;98794.06;;;21.59;75.82
63903;BME280;50072;50.678;13.938;2022-08-19T03:27:04;98800.88;;;21.53;75.77
63903;BME280;50072;50.678;13.938;2022-08-19T03:29:31;98796.53;;;21.51;76.00
63903;BME280;50072;50.678;13.938;2022-08-19T03:31:59;98790.84;;;21.54;75.38
63903;BME280;50072;50.678;13.938;2022-08-19T03:34:28;98810.03;;;21.52;76.02
63903;BME280;50072;50.678;13.938;2022-08-19T03:37:10;98805.19;;;21.45;76.30
63903;BME280;50072;50.678;13.938;2022-08-19T03:39:40;98812.25;;;21.47;76.19
63903;BME280;50072;50.678;13.938;2022-08-19T03:42:08;98806.78;;;21.47;76.13
63903;BME280;50072;50.678;13.938;2022-08-19T03:44:34;98800.13;;;21.51;75.34
63903;BME280;50072;50.678;13.938;2022-08-19T03:47:02;98821.53;;;21.56;75.49
63903;BME280;50072;50.678;13.938;2022-08-19T03:49:29;98816.69;;;21.60;75.37
63903;BME280;50072;50.678;13.938;2022-08-19T03:51:57;98812.97;;;21.61;75.53
63903;BME280;50072;50.678;13.938;2022-08-19T03:54:26;98821.75;;;21.64;75.05
63903;BME280;50072;50.678;13.938;2022-08-19T03:56:54;98824.84;;;21.60;76.15
63903;BME280;50072;50.678;13.938;2022-08-19T03:59:27;98818.66;;;21.58;76.43
63903;BME280;50072;50.678;13.938;2022-08-19T04:01:56;98802.47;;;21.56;75.98
63903;BME280;50072;50.678;13.938;2022-08-19T04:04:23;98813.22;;;21.58;75.43
63903;BME280;50072;50.678;13.938;2022-08-19T04:06:49;98803.34;;;21.57;76.02
63903;BME280;50072;50.678;13.938;2022-08-19T04:09:18;98796.88;;;21.58;75.91
63903;BME280;50072;50.678;13.938;2022-08-19T04:11:53;98795.03;;;21.58;76.60
63903;BME280;50072;50.678;13.938;2022-08-19T04:14:22;98803.06;;;21.60;75.60
63903;BME280;50072;50.678;13.938;2022-08-19T04:16:50;98796.03;;;21.57;75.78
63903;BME280;50072;50.678;13.938;2022-08-19T04:19:18;98803.78;;;21.62;75.58
63903;BME280;50072;50.678;13.938;2022-08-19T04:21:48;98799.97;;;21.64;76.11
63903;BME280;50072;50.678;13.938;2022-08-19T04:24:14;98794.38;;;21.66;76.03
63903;BME280;50072;50.678;13.938;2022-08-19T04:26:40;98787.94;;;21.67;75.58
63903;BME280;50072;50.678;13.938;2022-08-19T04:29:22;98791.53;;;21.67;75.95
63903;BME280;50072;50.678;13.938;2022-08-19T04:31:51;98784.50;;;21.65;75.39
63903;BME280;50072;50.678;13.938;2022-08-19T04:34:20;98783.97;;;21.71;75.78
63903;BME280;50072;50.678;13.938;2022-08-19T04:36:51;98789.16;;;21.74;75.45
63903;BME280;50072;50.678;13.938;2022-08-19T04:39:21;98795.22;;;21.78;75.61
63903;BME280;50072;50.678;13.938;2022-08-19T04:41:47;98810.94;;;21.74;75.32
63903;BME280;50072;50.678;13.938;2022-08-19T04:44:32;98798.56;;;21.70;75.25
63903;BME280;50072;50.678;13.938;2022-08-19T04:46:59;98806.22;;;21.76;75.28
63903;BME280;50072;50.678;13.938;2022-08-19T04:49:25;98804.09;;;21.80;75.17
63903;BME280;50072;50.678;13.938;2022-08-19T04:51:53;98806.81;;;21.80;75.39
63903;BME280;50072;50.678;13.938;2022-08-19T04:54:22;98807.81;;;21.79;75.58
63903;BME280;50072;50.678;13.938;2022-08-19T04:56:49;98819.06;;;21.85;75.00
63903;BME280;50072;50.678;13.938;2022-08-19T04:59:16;98812.88;;;21.83;75.66
63903;BME280;50072;50.678;13.938;2022-08-19T05:01:47;98828.69;;;21.89;74.67
63903;BME280;50072;50.678;13.938;2022-08-19T05:04:19;98834.16;;;21.89;75.30
63903;BME280;50072;50.678;13.938;2022-08-19T05:06:49;98836.00;;;21.89;75.16
63903;BME280;50072;50.678;13.938;2022-08-19T05:09:15;98843.91;;;21.92;74.93
63903;BME280;50072;50.678;13.938;2022-08-19T05:11:42;98855.41;;;21.96;74.66
63903;BME280;50072;50.678;13.938;2022-08-19T05:14:09;98845.38;;;21.96;75.27
63903;BME280;50072;50.678;13.938;2022-08-19T05:16:38;98844.25;;;21.99;74.54
63903;BME280;50072;50.678;13.938;2022-08-19T05:19:04;98844.09;;;22.00;74.55
63903;BME280;50072;50.678;13.938;2022-08-19T05:21:49;98859.34;;;22.03;74.37
63903;BME280;50072;50.678;13.938;2022-08-19T05:24:33;98869.25;;;22.04;74.57
63903;BME280;50072;50.678;13.938;2022-08-19T05:27:03;98863.31;;;21.99;74.63
63903;BME280;50072;50.678;13.938;2022-08-19T05:29:31;98876.44;;;22.05;74.41
63903;BME280;50072;50.678;13.938;2022-08-19T05:32:01;98874.28;;;22.09;74.20
63903;BME280;50072;50.678;13.938;2022-08-19T05:34:28;98886.78;;;22.11;74.06
63903;BME280;50072;50.678;13.938;2022-08-19T05:36:56;98891.25;;;22.12;74.16
63903;BME280;50072;50.678;13.938;2022-08-19T05:39:26;98893.97;;;22.12;73.62
63903;BME280;50072;50.678;13.938;2022-08-19T05:42:00;98903.75;;;22.15;74.41
63903;BME280;50072;50.678;13.938;2022-08-19T05:44:29;98908.31;;;22.14;73.95
63903;BME280;50072;50.678;13.938;2022-08-19T05:47:03;98916.63;;;22.13;74.49
63903;BME280;50072;50.678;13.938;2022-08-19T05:49:32;98924.09;;;22.11;74.21
63903;BME280;50072;50.678;13.938;2022-08-19T05:52:14;98935.00;;;22.11;74.68
63903;BME280;50072;50.678;13.938;2022-08-19T05:54:47;98941.28;;;22.11;74.58
63903;BME280;50072;50.678;13.938;2022-08-19T05:57:19;98938.56;;;22.11;74.51
63903;BME280;50072;50.678;13.938;2022-08-19T05:59:46;98946.75;;;22.11;74.32
63903;BME280;50072;50.678;13.938;2022-08-19T06:02:16;98957.78;;;22.10;74.55
63903;BME280;50072;50.678;13.938;2022-08-19T06:04:47;98950.13;;;22.03;74.80
63903;BME280;50072;50.678;13.938;2022-08-19T06:07:18;98964.00;;;22.00;74.85
63903;BME280;50072;50.678;13.938;2022-08-19T06:09:47;98961.66;;;21.96;74.95
63903;BME280;50072;50.678;13.938;2022-08-19T06:12:14;98962.28;;;21.99;74.73
63903;BME280;50072;50.678;13.938;2022-08-19T06:14:47;98953.22;;;21.99;74.51
63903;BME280;50072;50.678;13.938;2022-08-19T06:17:12;98958.81;;;21.97;74.80
63903;BME280;50072;50.678;13.938;2022-08-19T06:19:47;98969.34;;;22.02;74.81
63903;BME280;50072;50.678;13.938;2022-08-19T06:22:18;98977.50;;;22.02;74.78
63903;BME280;50072;50.678;13.938;2022-08-19T06:24:47;98971.31;;;22.00;74.62
63903;BME280;50072;50.678;13.938;2022-08-19T06:27:19;98970.31;;;22.01;75.08
63903;BME280;50072;50.678;13.938;2022-08-19T06:29:46;98967.59;;;22.01;74.69
63903;BME280;50072;50.678;13.938;2022-08-19T06:32:15;98979.97;;;22.05;74.83
63903;BME280;50072;50.678;13.938;2022-08-19T06:34:42;98987.13;;;22.06;74.57
63903;BME280;50072;50.678;13.938;2022-08-19T06:37:15;98981.69;;;22.06;74.94
63903;BME280;50072;50.678;13.938;2022-08-19T06:39:47;98979.72;;;22.08;74.98
63903;BME280;50072;50.678;13.938;2022-08-19T06:42:17;98976.13;;;22.08;74.53
63903;BME280;50072;50.678;13.938;2022-08-19T06:44:49;98985.63;;;22.13;74.45
63903;BME280;50072;50.678;13.938;2022-08-19T06:47:21;98968.53;;;22.11;74.28
63903;BME280;50072;50.678;13.938;2022-08-19T06:49:47;98977.66;;;22.21;74.44
63903;BME280;50072;50.678;13.938;2022-08-19T06:52:19;98982.50;;;22.29;74.09
63903;BME280;50072;50.678;13.938;2022-08-19T06:54:45;98976.66;;;22.34;73.77
63903;BME280;50072;50.678;13.938;2022-08-19T06:57:17;98989.41;;;22.45;73.72
63903;BME280;50072;50.678;13.938;2022-08-19T06:59:43;98989.13;;;22.48;73.38
63903;BME280;50072;50.678;13.938;2022-08-19T07:02:11;98995.56;;;22.47;73.46
63903;BME280;50072;50.678;13.938;2022-08-19T07:04:37;99000.41;;;22.43;73.16
63903;BME280;50072;50.678;13.938;2022-08-19T07:07:07;99003.13;;;22.43;73.46
63903;BME280;50072;50.678;13.938;2022-08-19T07:09:34;98991.25;;;22.44;73.26
63903;BME280;50072;50.678;13.938;2022-08-19T07:12:04;98997.81;;;22.41;73.67
63903;BME280;50072;50.678;13.938;2022-08-19T07:14:30;98992.91;;;22.35;73.38
63903;BME280;50072;50.678;13.938;2022-08-19T07:16:56;98994.63;;;22.36;73.12
63903;BME280;50072;50.678;13.938;2022-08-19T07:19:24;99003.41;;;22.40;72.93
63903;BME280;50072;50.678;13.938;2022-08-19T07:21:51;99006.00;;;22.41;73.17
63903;BME280;50072;50.678;13.938;2022-08-19T07:24:20;99000.41;;;22.43;73.35
63903;BME280;50072;50.678;13.938;2022-08-19T07:26:46;98997.81;;;22.41;73.55
63903;BME280;50072;50.678;13.938;2022-08-19T07:29:12;99002.78;;;22.48;73.25
63903;BME280;50072;50.678;13.938;2022-08-19T07:31:39;98995.94;;;22.53;72.96
63903;BME280;50072;50.678;13.938;2022-08-19T07:34:07;98991.59;;;22.51;73.36
63903;BME280;50072;50.678;13.938;2022-08-19T07:36:34;99005.69;;;22.56;73.12
63903;BME280;50072;50.678;13.938;2022-08-19T07:39:06;99008.03;;;22.61;72.45
63903;BME280;50072;50.678;13.938;2022-08-19T07:41:32;99006.78;;;22.65;72.61
63903;BME280;50072;50.678;13.938;2022-08-19T07:43:59;99008.88;;;22.61;72.59
63903;BME280;50072;50.678;13.938;2022-08-19T07:46:30;99006.28;;;22.60;72.52
63903;BME280;50072;50.678;13.938;2022-08-19T07:48:56;99015.09;;;22.63;72.25
63903;BME280;50072;50.678;13.938;2022-08-19T07:51:22;99008.50;;;22.66;71.94
63903;BME280;50072;50.678;13.938;2022-08-19T07:53:49;99013.69;;;22.69;71.95
63903;BME280;50072;50.678;13.938;2022-08-19T07:56:18;99004.91;;;22.65;72.23
63903;BME280;50072;50.678;13.938;2022-08-19T07:58:46;99015.28;;;22.71;71.75
63903;BME280;50072;50.678;13.938;2022-08-19T08:01:15;99027.66;;;22.75;71.89
63903;BME280;50072;50.678;13.938;2022-08-19T08:03:41;99015.28;;;22.71;71.94
63903;BME280;50072;50.678;13.938;2022-08-19T08:06:25;99028.41;;;22.78;71.46
63903;BME280;50072;50.678;13.938;2022-08-19T08:09:11;99028.13;;;22.81;71.30
63903;BME280;50072;50.678;13.938;2022-08-19T08:11:43;99025.75;;;22.87;71.66
63903;BME280;50072;50.678;13.938;2022-08-19T08:14:17;99016.28;;;22.91;71.59
63903;BME280;50072;50.678;13.938;2022-08-19T08:16:43;99014.28;;;22.93;71.41
63903;BME280;50072;50.678;13.938;2022-08-19T08:19:11;99004.22;;;22.94;70.74
63903;BME280;50072;50.678;13.938;2022-08-19T08:21:41;99004.72;;;22.99;70.41
63903;BME280;50072;50.678;13.938;2022-08-19T08:24:07;99012.97;;;23.09;70.05
63903;BME280;50072;50.678;13.938;2022-08-19T08:26:33;99017.31;;;23.12;69.98
63903;BME280;50072;50.678;13.938;2022-08-19T08:28:58;99021.34;;;23.17;69.90
63903;BME280;50072;50.678;13.938;2022-08-19T08:31:24;99008.16;;;23.22;69.93
63903;BME280;50072;50.678;13.938;2022-08-19T08:33:50;99021.75;;;23.34;69.17
63903;BME280;50072;50.678;13.938;2022-08-19T08:36:17;99016.59;;;23.40;68.72
63903;BME280;50072;50.678;13.938;2022-08-19T08:38:43;99014.91;;;23.49;68.46
63903;BME280;50072;50.678;13.938;2022-08-19T08:44:18;99028.91;;;23.66;67.30
63903;BME280;50072;50.678;13.938;2022-08-19T08:46:49;99019.03;;;23.74;67.22
63903;BME280;50072;50.678;13.938;2022-08-19T08:49:56;99026.59;;;23.92;67.09
63903;BME280;50072;50.678;13.938;2022-08-19T08:52:33;99021.88;;;24.04;66.96
63903;BME280;50072;50.678;13.938;2022-08-19T08:55:09;99016.28;;;24.15;66.70
63903;BME280;50072;50.678;13.938;2022-08-19T08:58:06;99004.78;;;24.21;65.30
63903;BME280;50072;50.678;13.938;2022-08-19T09:00:44;98982.63;;;24.24;65.79
63903;BME280;50072;50.678;13.938;2022-08-19T09:03:23;98984.94;;;24.29;65.37
63903;BME280;50072;50.678;13.938;2022-08-19T09:06:00;98993.69;;;24.33;64.32
63903;BME280;50072;50.678;13.938;2022-08-19T09:08:43;99002.47;;;24.26;64.55
63903;BME280;50072;50.678;13.938;2022-08-19T09:11:23;98997.75;;;24.28;64.33
63903;BME280;50072;50.678;13.938;2022-08-19T09:17:09;99008.53;;;24.40;64.09
63903;BME280;50072;50.678;13.938;2022-08-19T09:19:50;98996.03;;;24.47;63.92
63903;BME280;50072;50.678;13.938;2022-08-19T09:22:16;98997.59;;;24.50;63.78
63903;BME280;50072;50.678;13.938;2022-08-19T09:24:42;98990.53;;;24.57;63.53
63903;BME280;50072;50.678;13.938;2022-08-19T09:27:08;98987.25;;;24.73;63.51
63903;BME280;50072;50.678;13.938;2022-08-19T09:29:34;98991.97;;;24.90;63.09
63903;BME280;50072;50.678;13.938;2022-08-19T09:32:00;98995.13;;;24.95;62.58
63903;BME280;50072;50.678;13.938;2022-08-19T09:34:26;98992.09;;;25.08;62.71
63903;BME280;50072;50.678;13.938;2022-08-19T09:36:53;98996.34;;;25.30;61.36
63903;BME280;50072;50.678;13.938;2022-08-19T09:39:22;98998.53;;;25.64;61.20
63903;BME280;50072;50.678;13.938;2022-08-19T09:41:48;99006.50;;;25.86;59.51
63903;BME280;50072;50.678;13.938;2022-08-19T09:44:15;99003.88;;;25.94;59.05
63903;BME280;50072;50.678;13.938;2022-08-19T09:46:41;99011.06;;;25.95;59.53
63903;BME280;50072;50.678;13.938;2022-08-19T09:49:08;99000.06;;;26.05;59.24
63903;BME280;50072;50.678;13.938;2022-08-19T09:51:34;99020.00;;;26.25;58.67
63903;BME280;50072;50.678;13.938;2022-08-19T09:54:04;99013.19;;;26.29;56.79
63903;BME280;50072;50.678;13.938;2022-08-19T09:56:31;99019.53;;;26.29;58.01
63903;BME280;50072;50.678;13.938;2022-08-19T09:59:00;99014.66;;;26.23;57.69
63903;BME280;50072;50.678;13.938;2022-08-19T10:01:29;99021.88;;;26.24;58.47
63903;BME280;50072;50.678;13.938;2022-08-19T10:03:57;99022.50;;;26.18;58.22
63903;BME280;50072;50.678;13.938;2022-08-19T10:06:26;99035.25;;;26.09;58.19
63903;BME280;50072;50.678;13.938;2022-08-19T10:08:54;99019.75;;;25.90;58.51
63903;BME280;50072;50.678;13.938;2022-08-19T10:11:20;99027.22;;;25.70;58.84
63903;BME280;50072;50.678;13.938;2022-08-19T10:13:47;99033.16;;;25.65;59.22
63903;BME280;50072;50.678;13.938;2022-08-19T10:16:18;99035.31;;;25.62;59.34
63903;BME280;50072;50.678;13.938;2022-08-19T10:18:45;99036.47;;;25.59;59.42
63903;BME280;50072;50.678;13.938;2022-08-19T10:21:22;99034.78;;;25.58;59.72
63903;BME280;50072;50.678;13.938;2022-08-19T10:23:50;99043.84;;;25.59;59.73
63903;BME280;50072;50.678;13.938;2022-08-19T10:26:31;99035.78;;;25.57;59.25
63903;BME280;50072;50.678;13.938;2022-08-19T10:28:57;99037.09;;;25.53;59.19
63903;BME280;50072;50.678;13.938;2022-08-19T10:31:28;99038.44;;;25.39;58.09
63903;BME280;50072;50.678;13.938;2022-08-19T10:33:55;99043.66;;;25.32;58.82
63903;BME280;50072;50.678;13.938;2022-08-19T10:36:25;99037.59;;;25.19;59.04
63903;BME280;50072;50.678;13.938;2022-08-19T10:38:53;99051.75;;;25.05;59.29
63903;BME280;50072;50.678;13.938;2022-08-19T10:41:24;99044.84;;;25.01;59.48
63903;BME280;50072;50.678;13.938;2022-08-19T10:43:52;99050.75;;;24.96;59.96
63903;BME280;50072;50.678;13.938;2022-08-19T10:46:21;99044.28;;;24.87;60.28
63903;BME280;50072;50.678;13.938;2022-08-19T10:48:49;99056.22;;;24.86;60.26
63903;BME280;50072;50.678;13.938;2022-08-19T10:51:15;99058.53;;;24.81;60.43
63903;BME280;50072;50.678;13.938;2022-08-19T10:53:59;99061.56;;;24.78;60.92
63903;BME280;50072;50.678;13.938;2022-08-19T10:56:27;99056.38;;;24.75;60.85
63903;BME280;50072;50.678;13.938;2022-08-19T10:59:11;99057.81;;;24.69;61.02
63903;BME280;50072;50.678;13.938;2022-08-19T11:01:42;99061.69;;;24.67;61.45
63903;BME280;50072;50.678;13.938;2022-08-19T11:04:09;99064.72;;;24.63;61.60
63903;BME280;50072;50.678;13.938;2022-08-19T11:06:37;99072.22;;;24.61;61.62
63903;BME280;50072;50.678;13.938;2022-08-19T11:09:04;99071.59;;;24.58;61.88
63903;BME280;50072;50.678;13.938;2022-08-19T11:11:32;99076.22;;;24.57;61.78
63903;BME280;50072;50.678;13.938;2022-08-19T11:13:58;99072.75;;;24.55;62.13
63903;BME280;50072;50.678;13.938;2022-08-19T11:16:25;99069.31;;;24.53;61.58
63903;BME280;50072;50.678;13.938;2022-08-19T11:18:58;99069.44;;;24.52;61.41
63903;BME280;50072;50.678;13.938;2022-08-19T11:21:28;99065.84;;;24.51;61.57
63903;BME280;50072;50.678;13.938;2022-08-19T11:23:58;99064.13;;;24.50;61.28
63903;BME280;50072;50.678;13.938;2022-08-19T11:26:25;99069.59;;;24.50;61.11
63903;BME280;50072;50.678;13.938;2022-08-19T11:28:51;99062.69;;;24.46;61.68
63903;BME280;50072;50.678;13.938;2022-08-19T11:31:22;99071.59;;;24.48;62.10
63903;BME280;50072;50.678;13.938;2022-08-19T11:33:49;99065.13;;;24.49;62.03
63903;BME280;50072;50.678;13.938;2022-08-19T11:36:18;99065.97;;;24.50;62.29
63903;BME280;50072;50.678;13.938;2022-08-19T11:38:47;99068.56;;;24.51;62.34
63903;BME280;50072;50.678;13.938;2022-08-19T11:41:16;99061.94;;;24.54;62.21
63903;BME280;50072;50.678;13.938;2022-08-19T11:43:41;99052.91;;;24.53;62.39
63903;BME280;50072;50.678;13.938;2022-08-19T11:46:11;99059.97;;;24.56;62.29
63903;BME280;50072;50.678;13.938;2022-08-19T11:48:39;99071.06;;;24.64;62.00
63903;BME280;50072;50.678;13.938;2022-08-19T11:51:08;99068.91;;;24.68;61.83
63903;BME280;50072;50.678;13.938;2022-08-19T11:53:36;99063.59;;;24.66;61.88
63903;BME280;50072;50.678;13.938;2022-08-19T11:56:03;99074.38;;;24.68;62.14
63903;BME280;50072;50.678;13.938;2022-08-19T11:58:30;99069.19;;;24.64;61.73
63903;BME280;50072;50.678;13.938;2022-08-19T12:00:56;99065.47;;;24.66;62.11
63903;BME280;50072;50.678;13.938;2022-08-19T12:03:23;99062.72;;;24.66;62.17
63903;BME280;50072;50.678;13.938;2022-08-19T12:05:49;99076.13;;;24.69;61.87
63903;BME280;50072;50.678;13.938;2022-08-19T12:08:16;99076.97;;;24.69;62.24
63903;BME280;50072;50.678;13.938;2022-08-19T12:10:43;99075.38;;;24.67;61.72
63903;BME280;50072;50.678;13.938;2022-08-19T12:13:12;99071.94;;;24.64;61.83
63903;BME280;50072;50.678;13.938;2022-08-19T12:15:46;99069.91;;;24.67;61.36
63903;BME280;50072;50.678;13.938;2022-08-19T12:18:12;99070.78;;;24.67;61.76
63903;BME280;50072;50.678;13.938;2022-08-19T12:20:40;99076.69;;;24.72;61.50
63903;BME280;50072;50.678;13.938;2022-08-19T12:23:08;99083.19;;;24.71;61.46
63903;BME280;50072;50.678;13.938;2022-08-19T12:25:44;99073.09;;;24.72;61.68
63903;BME280;50072;50.678;13.938;2022-08-19T12:28:16;99075.97;;;24.70;61.81
63903;BME280;50072;50.678;13.938;2022-08-19T12:30:42;99077.97;;;24.68;61.70
63903;BME280;50072;50.678;13.938;2022-08-19T12:33:08;99077.25;;;24.66;61.49
63903;BME280;50072;50.678;13.938;2022-08-19T12:35:34;99074.53;;;24.66;61.97
63903;BME280;50072;50.678;13.938;2022-08-19T12:38:00;99071.94;;;24.64;61.81
63903;BME280;50072;50.678;13.938;2022-08-19T12:40:28;99078.13;;;24.67;61.52
63903;BME280;50072;50.678;13.938;2022-08-19T12:42:55;99075.38;;;24.67;61.71
63903;BME280;50072;50.678;13.938;2022-08-19T12:45:21;99074.25;;;24.69;61.74
63903;BME280;50072;50.678;13.938;2022-08-19T12:47:47;99073.94;;;24.72;61.35
63903;BME280;50072;50.678;13.938;2022-08-19T12:50:13;99067.91;;;24.78;61.59
63903;BME280;50072;50.678;13.938;2022-08-19T12:52:39;99067.31;;;24.94;61.37
63903;BME280;50072;50.678;13.938;2022-08-19T12:55:08;99055.91;;;25.09;61.14
63903;BME280;50072;50.678;13.938;2022-08-19T12:57:35;99055.16;;;25.26;60.96
63903;BME280;50072;50.678;13.938;2022-08-19T13:00:13;99049.81;;;25.44;60.74
63903;BME280;50072;50.678;13.938;2022-08-19T13:02:42;99048.47;;;25.58;60.27
63903;BME280;50072;50.678;13.938;2022-08-19T13:05:14;99052.19;;;25.67;59.31
63903;BME280;50072;50.678;13.938;2022-08-19T13:07:42;99046.81;;;25.75;58.62